sensor_id;sensor_type;location;lat;lon;timestamp;P1;durP1;ratioP1;P2;durP2;ratioP2
47239;SDS011;32978;53.586;10.052;2023-02-19T00:02:54;18.55;;;16.63;;
47239;SDS011;32978;53.586;10.052;2023-02-19T00:07:52;20.50;;;15.68;;
47239;SDS011;32978;53.586;10.052;2023-02-19T00:12:49;17.88;;;13.43;;
47239;SDS011;32978;53.586;10.052;2023-02-19T00:17:47;14.13;;;12.55;;
47239;SDS011;32978;53.586;10.052;2023-02-19T00:22:43;17.20;;;15.60;;
47239;SDS011;32978;53.586;10.052;2023-02-19T00:27:39;16.17;;;14.48;;
47239;SDS011;32978;53.586;10.052;2023-02-19T00:32:36;14.68;;;12.85;;
47239;SDS011;32978;53.586;10.052;2023-02-19T00:37:32;12.65;;;11.32;;
47239;SDS011;32978;53.586;10.052;2023-02-19T00:42:29;13.98;;;12.60;;
47239;SDS011;32978;53.586;10.052;2023-02-19T00:47:25;14.40;;;13.00;;
47239;SDS011;32978;53.586;10.052;2023-02-19T00:52:21;16.98;;;14.38;;
47239;SDS011;32978;53.586;10.052;2023-02-19T00:57:18;16.60;;;14.90;;
47239;SDS011;32978;53.586;10.052;2023-02-19T01:02:14;18.52;;;14.82;;
47239;SDS011;32978;53.586;10.052;2023-02-19T01:07:11;19.92;;;15.43;;
47239;SDS011;32978;53.586;10.052;2023-02-19T01:12:07;17.58;;;14.55;;
47239;SDS011;32978;53.586;10.052;2023-02-19T01:17:04;17.63;;;13.85;;
47239;SDS011;32978;53.586;10.052;2023-02-19T01:22:00;17.63;;;13.65;;
47239;SDS011;32978;53.586;10.052;2023-02-19T01:26:57;21.13;;;17.17;;
47239;SDS011;32978;53.586;10.052;2023-02-19T01:31:53;17.88;;;16.23;;
47239;SDS011;32978;53.586;10.052;2023-02-19T01:36:50;20.20;;;15.88;;
47239;SDS011;32978;53.586;10.052;2023-02-19T01:41:46;16.65;;;15.35;;
47239;SDS011;32978;53.586;10.052;2023-02-19T01:46:43;17.75;;;15.40;;
47239;SDS011;32978;53.586;10.052;2023-02-19T01:51:47;15.98;;;14.48;;
47239;SDS011;32978;53.586;10.052;2023-02-19T01:56:48;18.27;;;16.52;;
47239;SDS011;32978;53.586;10.052;2023-02-19T02:01:45;14.85;;;13.55;;
47239;SDS011;32978;53.586;10.052;2023-02-19T02:06:43;22.35;;;16.00;;
47239;SDS011;32978;53.586;10.052;2023-02-19T02:11:48;13.52;;;12.43;;
47239;SDS011;32978;53.586;10.052;2023-02-19T02:27:27;15.15;;;13.57;;
47239;SDS011;32978;53.586;10.052;2023-02-19T02:32:42;16.60;;;15.07;;
47239;SDS011;32978;53.586;10.052;2023-02-19T02:37:48;16.77;;;15.20;;
47239;SDS011;32978;53.586;10.052;2023-02-19T02:42:46;20.38;;;15.25;;
47239;SDS011;32978;53.586;10.052;2023-02-19T02:47:51;16.55;;;15.02;;
47239;SDS011;32978;53.586;10.052;2023-02-19T02:52:59;19.60;;;15.15;;
47239;SDS011;32978;53.586;10.052;2023-02-19T02:58:17;18.30;;;16.38;;
47239;SDS011;32978;53.586;10.052;2023-02-19T03:03:15;16.15;;;14.77;;
47239;SDS011;32978;53.586;10.052;2023-02-19T03:08:19;18.05;;;16.30;;
47239;SDS011;32978;53.586;10.052;2023-02-19T03:13:35;17.02;;;15.65;;
47239;SDS011;32978;53.586;10.052;2023-02-19T03:18:53;17.27;;;15.60;;
47239;SDS011;32978;53.586;10.052;2023-02-19T03:24:10;17.65;;;16.02;;
47239;SDS011;32978;53.586;10.052;2023-02-19T03:29:27;17.73;;;16.38;;
47239;SDS011;32978;53.586;10.052;2023-02-19T03:34:36;18.92;;;17.27;;
47239;SDS011;32978;53.586;10.052;2023-02-19T03:39:36;17.55;;;16.35;;
47239;SDS011;32978;53.586;10.052;2023-02-19T03:45:14;18.48;;;16.70;;
47239;SDS011;32978;53.586;10.052;2023-02-19T03:50:22;18.33;;;16.73;;
47239;SDS011;32978;53.586;10.052;2023-02-19T04:00:38;18.88;;;17.30;;
47239;SDS011;32978;53.586;10.052;2023-02-19T04:05:50;17.65;;;16.20;;
47239;SDS011;32978;53.586;10.052;2023-02-19T04:10:53;17.50;;;16.10;;
47239;SDS011;32978;53.586;10.052;2023-02-19T04:15:50;19.15;;;16.92;;
47239;SDS011;32978;53.586;10.052;2023-02-19T04:20:50;17.48;;;15.68;;
47239;SDS011;32978;53.586;10.052;2023-02-19T04:25:48;18.02;;;16.42;;
47239;SDS011;32978;53.586;10.052;2023-02-19T04:30:48;19.38;;;17.60;;
47239;SDS011;32978;53.586;10.052;2023-02-19T04:35:45;16.35;;;15.05;;
47239;SDS011;32978;53.586;10.052;2023-02-19T04:40:41;15.60;;;14.07;;
47239;SDS011;32978;53.586;10.052;2023-02-19T04:45:38;15.75;;;14.23;;
47239;SDS011;32978;53.586;10.052;2023-02-19T04:50:36;18.08;;;14.73;;
47239;SDS011;32978;53.586;10.052;2023-02-19T04:55:38;14.75;;;13.43;;
47239;SDS011;32978;53.586;10.052;2023-02-19T05:00:34;19.52;;;14.75;;
47239;SDS011;32978;53.586;10.052;2023-02-19T05:05:30;16.05;;;14.63;;
47239;SDS011;32978;53.586;10.052;2023-02-19T05:10:27;15.10;;;13.70;;
47239;SDS011;32978;53.586;10.052;2023-02-19T05:15:23;15.77;;;13.77;;
47239;SDS011;32978;53.586;10.052;2023-02-19T05:20:20;15.80;;;13.95;;
47239;SDS011;32978;53.586;10.052;2023-02-19T05:25:18;15.07;;;13.23;;
47239;SDS011;32978;53.586;10.052;2023-02-19T05:30:14;14.82;;;13.38;;
47239;SDS011;32978;53.586;10.052;2023-02-19T05:35:11;16.27;;;14.63;;
47239;SDS011;32978;53.586;10.052;2023-02-19T05:40:07;16.88;;;15.13;;
47239;SDS011;32978;53.586;10.052;2023-02-19T05:45:04;18.27;;;16.65;;
47239;SDS011;32978;53.586;10.052;2023-02-19T05:50:00;17.48;;;15.88;;
47239;SDS011;32978;53.586;10.052;2023-02-19T05:54:57;17.35;;;16.00;;
47239;SDS011;32978;53.586;10.052;2023-02-19T05:59:55;18.77;;;17.02;;
47239;SDS011;32978;53.586;10.052;2023-02-19T06:04:51;19.73;;;17.92;;
47239;SDS011;32978;53.586;10.052;2023-02-19T06:09:50;21.70;;;19.30;;
47239;SDS011;32978;53.586;10.052;2023-02-19T06:14:47;18.75;;;16.83;;
47239;SDS011;32978;53.586;10.052;2023-02-19T06:19:43;17.63;;;16.13;;
47239;SDS011;32978;53.586;10.052;2023-02-19T06:24:40;18.40;;;16.67;;
47239;SDS011;32978;53.586;10.052;2023-02-19T06:29:36;18.35;;;16.70;;
47239;SDS011;32978;53.586;10.052;2023-02-19T06:34:33;16.30;;;14.68;;
47239;SDS011;32978;53.586;10.052;2023-02-19T06:39:30;17.98;;;13.32;;
47239;SDS011;32978;53.586;10.052;2023-02-19T06:44:26;15.13;;;13.25;;
47239;SDS011;32978;53.586;10.052;2023-02-19T06:49:23;18.92;;;14.73;;
47239;SDS011;32978;53.586;10.052;2023-02-19T06:54:19;16.23;;;14.55;;
47239;SDS011;32978;53.586;10.052;2023-02-19T06:59:16;15.27;;;13.90;;
47239;SDS011;32978;53.586;10.052;2023-02-19T07:04:12;14.70;;;13.40;;
47239;SDS011;32978;53.586;10.052;2023-02-19T07:09:09;16.33;;;12.90;;
47239;SDS011;32978;53.586;10.052;2023-02-19T07:14:06;14.32;;;13.10;;
47239;SDS011;32978;53.586;10.052;2023-02-19T07:24:05;20.27;;;14.38;;
47239;SDS011;32978;53.586;10.052;2023-02-19T07:29:02;15.93;;;14.55;;
47239;SDS011;32978;53.586;10.052;2023-02-19T07:33:59;15.65;;;14.13;;
47239;SDS011;32978;53.586;10.052;2023-02-19T07:38:56;19.58;;;14.52;;
47239;SDS011;32978;53.586;10.052;2023-02-19T07:43:53;15.65;;;14.25;;
47239;SDS011;32978;53.586;10.052;2023-02-19T07:48:50;15.30;;;14.05;;
47239;SDS011;32978;53.586;10.052;2023-02-19T07:53:47;17.10;;;15.43;;
47239;SDS011;32978;53.586;10.052;2023-02-19T07:58:47;18.23;;;16.45;;
47239;SDS011;32978;53.586;10.052;2023-02-19T08:03:44;17.80;;;16.10;;
47239;SDS011;32978;53.586;10.052;2023-02-19T08:08:41;18.33;;;15.18;;
47239;SDS011;32978;53.586;10.052;2023-02-19T08:13:37;16.60;;;14.90;;
47239;SDS011;32978;53.586;10.052;2023-02-19T08:18:33;16.50;;;14.82;;
47239;SDS011;32978;53.586;10.052;2023-02-19T08:23:30;15.30;;;13.70;;
47239;SDS011;32978;53.586;10.052;2023-02-19T08:28:27;17.50;;;15.75;;
47239;SDS011;32978;53.586;10.052;2023-02-19T08:33:24;17.00;;;13.80;;
47239;SDS011;32978;53.586;10.052;2023-02-19T08:38:21;14.88;;;13.30;;
47239;SDS011;32978;53.586;10.052;2023-02-19T08:43:17;14.23;;;12.82;;
47239;SDS011;32978;53.586;10.052;2023-02-19T08:48:14;15.23;;;13.82;;
47239;SDS011;32978;53.586;10.052;2023-02-19T08:53:10;14.98;;;13.50;;
47239;SDS011;32978;53.586;10.052;2023-02-19T08:58:07;15.23;;;13.65;;
47239;SDS011;32978;53.586;10.052;2023-02-19T09:03:05;12.88;;;11.68;;
47239;SDS011;32978;53.586;10.052;2023-02-19T09:08:02;13.98;;;12.68;;
47239;SDS011;32978;53.586;10.052;2023-02-19T09:12:58;17.42;;;13.25;;
47239;SDS011;32978;53.586;10.052;2023-02-19T09:17:55;14.23;;;12.75;;
47239;SDS011;32978;53.586;10.052;2023-02-19T09:22:55;17.20;;;11.40;;
47239;SDS011;32978;53.586;10.052;2023-02-19T09:27:54;11.98;;;10.75;;
47239;SDS011;32978;53.586;10.052;2023-02-19T09:32:51;14.77;;;10.30;;
47239;SDS011;32978;53.586;10.052;2023-02-19T09:37:48;11.60;;;7.38;;
47239;SDS011;32978;53.586;10.052;2023-02-19T09:42:45;15.82;;;8.90;;
47239;SDS011;32978;53.586;10.052;2023-02-19T09:47:41;10.15;;;6.57;;
47239;SDS011;32978;53.586;10.052;2023-02-19T09:52:57;15.40;;;7.70;;
47239;SDS011;32978;53.586;10.052;2023-02-19T09:57:59;13.13;;;6.20;;
47239;SDS011;32978;53.586;10.052;2023-02-19T10:03:03;9.25;;;5.63;;
47239;SDS011;32978;53.586;10.052;2023-02-19T10:08:03;13.15;;;4.32;;
47239;SDS011;32978;53.586;10.052;2023-02-19T10:13:20;7.22;;;4.20;;
47239;SDS011;32978;53.586;10.052;2023-02-19T10:18:31;11.27;;;4.40;;
47239;SDS011;32978;53.586;10.052;2023-02-19T10:23:36;13.32;;;5.97;;
47239;SDS011;32978;53.586;10.052;2023-02-19T10:28:35;9.00;;;4.22;;
47239;SDS011;32978;53.586;10.052;2023-02-19T10:33:33;10.23;;;4.53;;
47239;SDS011;32978;53.586;10.052;2023-02-19T10:38:44;6.85;;;3.85;;
47239;SDS011;32978;53.586;10.052;2023-02-19T10:43:44;6.72;;;4.00;;
47239;SDS011;32978;53.586;10.052;2023-02-19T10:48:52;10.60;;;4.55;;
47239;SDS011;32978;53.586;10.052;2023-02-19T10:54:01;7.72;;;4.03;;
47239;SDS011;32978;53.586;10.052;2023-02-19T11:04:14;9.82;;;4.10;;
47239;SDS011;32978;53.586;10.052;2023-02-19T11:09:26;6.32;;;3.75;;
47239;SDS011;32978;53.586;10.052;2023-02-19T11:14:26;8.43;;;4.45;;
47239;SDS011;32978;53.586;10.052;2023-02-19T11:19:43;6.28;;;4.40;;
47239;SDS011;32978;53.586;10.052;2023-02-19T11:24:46;7.50;;;3.97;;
47239;SDS011;32978;53.586;10.052;2023-02-19T11:29:44;4.20;;;3.80;;
47239;SDS011;32978;53.586;10.052;2023-02-19T11:34:43;6.18;;;3.88;;
47239;SDS011;32978;53.586;10.052;2023-02-19T11:39:40;6.90;;;3.78;;
47239;SDS011;32978;53.586;10.052;2023-02-19T11:55:13;7.72;;;4.60;;
47239;SDS011;32978;53.586;10.052;2023-02-19T12:00:24;4.50;;;4.10;;
47239;SDS011;32978;53.586;10.052;2023-02-19T12:05:28;5.80;;;4.03;;
47239;SDS011;32978;53.586;10.052;2023-02-19T12:26:27;6.07;;;4.43;;
47239;SDS011;32978;53.586;10.052;2023-02-19T12:31:32;6.95;;;4.05;;
47239;SDS011;32978;53.586;10.052;2023-02-19T12:36:46;6.18;;;3.72;;
47239;SDS011;32978;53.586;10.052;2023-02-19T12:47:18;5.27;;;4.53;;
47239;SDS011;32978;53.586;10.052;2023-02-19T12:52:24;8.13;;;5.03;;
47239;SDS011;32978;53.586;10.052;2023-02-19T12:57:24;8.88;;;4.57;;
47239;SDS011;32978;53.586;10.052;2023-02-19T13:02:28;6.18;;;4.35;;
47239;SDS011;32978;53.586;10.052;2023-02-19T13:07:55;6.97;;;4.38;;
47239;SDS011;32978;53.586;10.052;2023-02-19T13:13:19;7.25;;;4.93;;
47239;SDS011;32978;53.586;10.052;2023-02-19T13:18:35;14.27;;;5.05;;
47239;SDS011;32978;53.586;10.052;2023-02-19T13:23:37;8.32;;;4.35;;
47239;SDS011;32978;53.586;10.052;2023-02-19T13:34:31;10.88;;;4.47;;
47239;SDS011;32978;53.586;10.052;2023-02-19T13:39:52;5.45;;;4.03;;
47239;SDS011;32978;53.586;10.052;2023-02-19T13:44:50;10.70;;;5.25;;
47239;SDS011;32978;53.586;10.052;2023-02-19T13:49:53;9.02;;;5.13;;
47239;SDS011;32978;53.586;10.052;2023-02-19T14:00:47;9.85;;;4.30;;
47239;SDS011;32978;53.586;10.052;2023-02-19T14:05:55;7.45;;;4.70;;
47239;SDS011;32978;53.586;10.052;2023-02-19T14:11:01;6.13;;;3.72;;
47239;SDS011;32978;53.586;10.052;2023-02-19T14:15:58;6.25;;;4.28;;
47239;SDS011;32978;53.586;10.052;2023-02-19T14:21:04;8.32;;;4.60;;
47239;SDS011;32978;53.586;10.052;2023-02-19T14:26:26;5.60;;;4.65;;
47239;SDS011;32978;53.586;10.052;2023-02-19T14:36:34;6.07;;;4.28;;
47239;SDS011;32978;53.586;10.052;2023-02-19T14:41:40;6.53;;;3.80;;
47239;SDS011;32978;53.586;10.052;2023-02-19T14:46:48;5.75;;;3.05;;
47239;SDS011;32978;53.586;10.052;2023-02-19T14:51:52;7.70;;;4.90;;
47239;SDS011;32978;53.586;10.052;2023-02-19T14:56:56;6.95;;;3.85;;
47239;SDS011;32978;53.586;10.052;2023-02-19T15:01:55;6.80;;;3.42;;
47239;SDS011;32978;53.586;10.052;2023-02-19T15:06:52;6.18;;;3.47;;
47239;SDS011;32978;53.586;10.052;2023-02-19T15:11:52;6.63;;;4.30;;
47239;SDS011;32978;53.586;10.052;2023-02-19T15:16:50;10.90;;;3.60;;
47239;SDS011;32978;53.586;10.052;2023-02-19T15:21:53;4.80;;;3.53;;
47239;SDS011;32978;53.586;10.052;2023-02-19T15:26:51;10.55;;;3.65;;
47239;SDS011;32978;53.586;10.052;2023-02-19T15:31:50;5.57;;;3.30;;
47239;SDS011;32978;53.586;10.052;2023-02-19T15:36:51;6.78;;;4.00;;
47239;SDS011;32978;53.586;10.052;2023-02-19T15:41:53;8.27;;;3.60;;
47239;SDS011;32978;53.586;10.052;2023-02-19T15:46:56;11.00;;;6.47;;
47239;SDS011;32978;53.586;10.052;2023-02-19T15:51:59;7.68;;;3.67;;
47239;SDS011;32978;53.586;10.052;2023-02-19T15:57:04;8.18;;;4.82;;
47239;SDS011;32978;53.586;10.052;2023-02-19T16:02:07;7.50;;;4.07;;
47239;SDS011;32978;53.586;10.052;2023-02-19T16:07:19;7.35;;;3.45;;
47239;SDS011;32978;53.586;10.052;2023-02-19T16:12:22;7.70;;;3.72;;
47239;SDS011;32978;53.586;10.052;2023-02-19T16:17:20;6.85;;;3.50;;
47239;SDS011;32978;53.586;10.052;2023-02-19T16:22:24;6.72;;;3.70;;
47239;SDS011;32978;53.586;10.052;2023-02-19T16:27:30;6.28;;;3.97;;
47239;SDS011;32978;53.586;10.052;2023-02-19T16:32:30;6.32;;;4.85;;
47239;SDS011;32978;53.586;10.052;2023-02-19T16:37:33;10.30;;;5.05;;
47239;SDS011;32978;53.586;10.052;2023-02-19T16:47:49;13.50;;;6.18;;
47239;SDS011;32978;53.586;10.052;2023-02-19T16:53:04;11.77;;;6.15;;
47239;SDS011;32978;53.586;10.052;2023-02-19T16:58:01;9.73;;;5.25;;
47239;SDS011;32978;53.586;10.052;2023-02-19T17:02:58;13.70;;;5.60;;
47239;SDS011;32978;53.586;10.052;2023-02-19T17:07:58;8.60;;;4.70;;
47239;SDS011;32978;53.586;10.052;2023-02-19T17:12:54;6.13;;;5.00;;
47239;SDS011;32978;53.586;10.052;2023-02-19T17:17:51;7.07;;;4.63;;
47239;SDS011;32978;53.586;10.052;2023-02-19T17:22:47;9.68;;;4.78;;
47239;SDS011;32978;53.586;10.052;2023-02-19T17:27:44;5.68;;;4.30;;
47239;SDS011;32978;53.586;10.052;2023-02-19T17:32:40;8.88;;;5.30;;
47239;SDS011;32978;53.586;10.052;2023-02-19T17:37:44;9.48;;;5.53;;
47239;SDS011;32978;53.586;10.052;2023-02-19T17:42:40;10.73;;;4.63;;
47239;SDS011;32978;53.586;10.052;2023-02-19T17:47:36;10.07;;;5.00;;
47239;SDS011;32978;53.586;10.052;2023-02-19T17:52:33;13.43;;;5.28;;
47239;SDS011;32978;53.586;10.052;2023-02-19T17:57:30;6.80;;;4.43;;
47239;SDS011;32978;53.586;10.052;2023-02-19T18:02:28;7.80;;;4.82;;
47239;SDS011;32978;53.586;10.052;2023-02-19T18:07:26;7.63;;;5.07;;
47239;SDS011;32978;53.586;10.052;2023-02-19T18:12:22;9.93;;;5.00;;
47239;SDS011;32978;53.586;10.052;2023-02-19T18:17:21;5.47;;;4.80;;
47239;SDS011;32978;53.586;10.052;2023-02-19T18:22:19;8.23;;;5.10;;
47239;SDS011;32978;53.586;10.052;2023-02-19T18:27:16;14.57;;;5.72;;
47239;SDS011;32978;53.586;10.052;2023-02-19T18:32:19;7.45;;;4.80;;
47239;SDS011;32978;53.586;10.052;2023-02-19T18:37:16;6.72;;;4.60;;
47239;SDS011;32978;53.586;10.052;2023-02-19T18:42:14;11.07;;;5.53;;
47239;SDS011;32978;53.586;10.052;2023-02-19T18:47:11;8.90;;;5.65;;
47239;SDS011;32978;53.586;10.052;2023-02-19T18:52:07;13.20;;;5.22;;
47239;SDS011;32978;53.586;10.052;2023-02-19T18:57:04;9.98;;;5.00;;
47239;SDS011;32978;53.586;10.052;2023-02-19T19:02:00;5.85;;;4.40;;
47239;SDS011;32978;53.586;10.052;2023-02-19T19:07:00;8.80;;;4.50;;
47239;SDS011;32978;53.586;10.052;2023-02-19T19:11:56;6.00;;;4.72;;
47239;SDS011;32978;53.586;10.052;2023-02-19T19:16:53;10.75;;;5.18;;
47239;SDS011;32978;53.586;10.052;2023-02-19T19:21:53;9.32;;;5.57;;
47239;SDS011;32978;53.586;10.052;2023-02-19T19:26:50;8.77;;;5.25;;
47239;SDS011;32978;53.586;10.052;2023-02-19T19:31:47;14.45;;;5.10;;
47239;SDS011;32978;53.586;10.052;2023-02-19T19:36:45;11.18;;;5.10;;
47239;SDS011;32978;53.586;10.052;2023-02-19T19:41:41;7.10;;;4.55;;
47239;SDS011;32978;53.586;10.052;2023-02-19T19:46:42;9.23;;;5.40;;
47239;SDS011;32978;53.586;10.052;2023-02-19T19:51:40;9.32;;;4.95;;
47239;SDS011;32978;53.586;10.052;2023-02-19T19:56:40;7.18;;;5.53;;
47239;SDS011;32978;53.586;10.052;2023-02-19T20:01:38;8.40;;;5.40;;
47239;SDS011;32978;53.586;10.052;2023-02-19T20:06:41;9.32;;;5.60;;
47239;SDS011;32978;53.586;10.052;2023-02-19T20:11:48;11.82;;;5.35;;
47239;SDS011;32978;53.586;10.052;2023-02-19T20:16:46;13.50;;;5.25;;
47239;SDS011;32978;53.586;10.052;2023-02-19T20:21:45;7.75;;;5.70;;
47239;SDS011;32978;53.586;10.052;2023-02-19T20:26:43;12.57;;;6.28;;
47239;SDS011;32978;53.586;10.052;2023-02-19T20:31:45;11.07;;;5.60;;
47239;SDS011;32978;53.586;10.052;2023-02-19T20:36:44;8.93;;;5.53;;
47239;SDS011;32978;53.586;10.052;2023-02-19T20:41:45;8.02;;;5.50;;
47239;SDS011;32978;53.586;10.052;2023-02-19T20:46:47;10.00;;;5.93;;
47239;SDS011;32978;53.586;10.052;2023-02-19T20:51:46;10.43;;;6.18;;
47239;SDS011;32978;53.586;10.052;2023-02-19T20:56:44;9.07;;;5.72;;
47239;SDS011;32978;53.586;10.052;2023-02-19T21:01:41;11.85;;;6.85;;
47239;SDS011;32978;53.586;10.052;2023-02-19T21:06:38;7.82;;;5.28;;
47239;SDS011;32978;53.586;10.052;2023-02-19T21:11:36;7.32;;;5.50;;
47239;SDS011;32978;53.586;10.052;2023-02-19T21:16:33;8.70;;;5.43;;
47239;SDS011;32978;53.586;10.052;2023-02-19T21:21:29;10.25;;;6.20;;
47239;SDS011;32978;53.586;10.052;2023-02-19T21:26:33;10.38;;;5.15;;
47239;SDS011;32978;53.586;10.052;2023-02-19T21:31:39;9.68;;;5.13;;
47239;SDS011;32978;53.586;10.052;2023-02-19T21:36:37;11.18;;;4.85;;
47239;SDS011;32978;53.586;10.052;2023-02-19T21:41:34;8.02;;;4.63;;
47239;SDS011;32978;53.586;10.052;2023-02-19T21:46:31;15.05;;;5.20;;
47239;SDS011;32978;53.586;10.052;2023-02-19T21:51:37;9.35;;;4.28;;
47239;SDS011;32978;53.586;10.052;2023-02-19T21:56:35;5.80;;;5.05;;
47239;SDS011;32978;53.586;10.052;2023-02-19T22:01:33;11.63;;;5.03;;
47239;SDS011;32978;53.586;10.052;2023-02-19T22:06:33;7.55;;;4.70;;
47239;SDS011;32978;53.586;10.052;2023-02-19T22:11:30;8.70;;;5.30;;
47239;SDS011;32978;53.586;10.052;2023-02-19T22:16:26;8.95;;;4.85;;
47239;SDS011;32978;53.586;10.052;2023-02-19T22:21:24;9.15;;;5.28;;
47239;SDS011;32978;53.586;10.052;2023-02-19T22:26:24;8.82;;;4.78;;
47239;SDS011;32978;53.586;10.052;2023-02-19T22:31:30;8.27;;;4.80;;
47239;SDS011;32978;53.586;10.052;2023-02-19T22:36:27;13.20;;;5.75;;
47239;SDS011;32978;53.586;10.052;2023-02-19T22:41:28;9.15;;;5.20;;
47239;SDS011;32978;53.586;10.052;2023-02-19T22:46:26;7.75;;;4.35;;
47239;SDS011;32978;53.586;10.052;2023-02-19T22:51:24;12.23;;;5.10;;
47239;SDS011;32978;53.586;10.052;2023-02-19T22:56:22;7.85;;;4.53;;
47239;SDS011;32978;53.586;10.052;2023-02-19T23:01:20;9.60;;;5.00;;
47239;SDS011;32978;53.586;10.052;2023-02-19T23:06:20;9.80;;;5.07;;
47239;SDS011;32978;53.586;10.052;2023-02-19T23:11:23;7.57;;;4.30;;
47239;SDS011;32978;53.586;10.052;2023-02-19T23:16:24;10.00;;;4.25;;
47239;SDS011;32978;53.586;10.052;2023-02-19T23:21:21;9.63;;;5.05;;
47239;SDS011;32978;53.586;10.052;2023-02-19T23:26:18;7.47;;;4.30;;
47239;SDS011;32978;53.586;10.052;2023-02-19T23:31:15;8.32;;;4.18;;
47239;SDS011;32978;53.586;10.052;2023-02-19T23:36:12;7.70;;;4.05;;
47239;SDS011;32978;53.586;10.052;2023-02-19T23:41:10;6.95;;;4.15;;
47239;SDS011;32978;53.586;10.052;2023-02-19T23:46:11;7.28;;;4.00;;
47239;SDS011;32978;53.586;10.052;2023-02-19T23:51:09;8.43;;;4.47;;
47239;SDS011;32978;53.586;10.052;2023-02-19T23:56:06;10.05;;;4.20;;
